Time;durP1;ratioP1;P1;durP2;ratioP2;P2;SDS_P1;SDS_P2;PMS_P1;PMS_P2;Temp;Humidity;BMP_temperature;BMP_pressure;BME280_temperature;BME280_humidity;BME280_pressure;Samples;Min_cycle;Max_cycle;Signal;HPM_P1;HPM_P2
2023/12/10 00:01:02;;;;;;;75.35;54.28;;;;;;;;;;5009408;28;20053;-66
2023/12/10 00:03:28;;;;;;;205.93;175.38;;;;;;;;;;5001146;28;20499;-66
2023/12/10 00:05:55;;;;;;;172.38;123.60;;;;;;;;;;5008269;28;20053;-67
2023/12/10 00:08:36;;;;;;;456.45;353.73;;;;;;;;;;5002110;28;20053;-66
2023/12/10 00:11:03;;;;;;;234.90;168.45;;;;;;;;;;5009278;28;20066;-66
2023/12/10 00:13:32;;;;;;;94.53;60.85;;;;;;;;;;5002935;28;20545;-67
2023/12/10 00:15:58;;;;;;;136.70;87.28;;;;;;;;;;5006650;28;20064;-67
2023/12/10 00:18:25;;;;;;;85.80;54.95;;;;;;;;;;5003786;28;20042;-68
2023/12/10 00:20:51;;;;;;;123.57;79.55;;;;;;;;;;5006821;28;20111;-67
2023/12/10 00:23:18;;;;;;;104.05;69.13;;;;;;;;;;5009149;28;20116;-67
2023/12/10 00:25:47;;;;;;;94.40;57.58;;;;;;;;;;5006960;28;20050;-69
2023/12/10 00:28:14;;;;;;;151.90;99.43;;;;;;;;;;5007727;28;20720;-70
2023/12/10 00:30:42;;;;;;;73.45;50.38;;;;;;;;;;5006025;28;20455;-66
2023/12/10 00:33:09;;;;;;;90.88;59.10;;;;;;;;;;5009084;28;20046;-65
2023/12/10 00:35:35;;;;;;;83.55;57.40;;;;;;;;;;5000072;28;20045;-69
2023/12/10 00:38:02;;;;;;;87.75;59.75;;;;;;;;;;4999710;28;20049;-70
2023/12/10 00:40:28;;;;;;;39.80;25.52;;;;;;;;;;5004926;28;20053;-66
2023/12/10 00:42:58;;;;;;;45.55;23.92;;;;;;;;;;5006558;28;20093;-65
2023/12/10 00:45:24;;;;;;;47.67;26.45;;;;;;;;;;5004437;28;20046;-69
2023/12/10 00:47:51;;;;;;;43.33;25.80;;;;;;;;;;5003740;28;20054;-67
2023/12/10 00:50:18;;;;;;;59.63;35.25;;;;;;;;;;5002934;28;20137;-69
2023/12/10 00:52:44;;;;;;;81.93;57.42;;;;;;;;;;5005828;28;20050;-68
2023/12/10 00:55:11;;;;;;;56.03;35.40;;;;;;;;;;5005362;28;20517;-77
2023/12/10 00:57:37;;;;;;;37.72;20.00;;;;;;;;;;5003455;28;20100;-65
2023/12/10 01:00:04;;;;;;;59.08;32.75;;;;;;;;;;5009803;28;20042;-72
2023/12/10 01:02:31;;;;;;;59.53;31.88;;;;;;;;;;5004906;28;20054;-71
2023/12/10 01:04:58;;;;;;;50.28;26.75;;;;;;;;;;5004127;28;20054;-68
2023/12/10 01:07:24;;;;;;;40.08;21.95;;;;;;;;;;5002511;28;20069;-68
2023/12/10 01:09:50;;;;;;;36.10;18.80;;;;;;;;;;5008204;28;20078;-67
2023/12/10 01:12:17;;;;;;;47.55;25.85;;;;;;;;;;4994897;28;20054;-70
2023/12/10 01:14:44;;;;;;;34.70;17.90;;;;;;;;;;5007242;28;20136;-67
2023/12/10 01:17:12;;;;;;;43.88;21.30;;;;;;;;;;4999288;28;20077;-67
2023/12/10 01:19:39;;;;;;;51.80;25.80;;;;;;;;;;5006637;28;20050;-68
2023/12/10 01:22:05;;;;;;;40.30;26.92;;;;;;;;;;5005946;28;20053;-68
2023/12/10 01:24:32;;;;;;;32.38;18.83;;;;;;;;;;5004516;28;20057;-69
2023/12/10 01:26:58;;;;;;;32.97;18.52;;;;;;;;;;5006392;28;20060;-67
2023/12/10 01:29:25;;;;;;;53.30;36.20;;;;;;;;;;5004686;28;20073;-66
2023/12/10 01:31:52;;;;;;;31.05;17.35;;;;;;;;;;5007901;28;20045;-66
2023/12/10 01:34:18;;;;;;;34.50;18.75;;;;;;;;;;5006626;28;20112;-67
2023/12/10 01:36:45;;;;;;;26.55;15.75;;;;;;;;;;5007032;28;20173;-67
2023/12/10 01:39:15;;;;;;;33.40;15.40;;;;;;;;;;5002404;28;20096;-70
2023/12/10 01:41:41;;;;;;;27.00;15.48;;;;;;;;;;5007231;28;20056;-67
2023/12/10 01:44:09;;;;;;;25.27;13.55;;;;;;;;;;4998054;28;20046;-67
2023/12/10 01:46:36;;;;;;;33.33;17.25;;;;;;;;;;5006913;28;20546;-67
2023/12/10 01:49:03;;;;;;;28.00;14.70;;;;;;;;;;5003361;28;20058;-67
2023/12/10 01:51:30;;;;;;;27.00;15.38;;;;;;;;;;5008997;28;20050;-66
2023/12/10 01:53:57;;;;;;;38.20;22.40;;;;;;;;;;5007797;28;20058;-67
2023/12/10 01:56:24;;;;;;;45.03;26.90;;;;;;;;;;5005159;28;20062;-66
2023/12/10 01:58:50;;;;;;;33.85;21.23;;;;;;;;;;5002766;28;20046;-68
2023/12/10 02:01:17;;;;;;;29.27;12.15;;;;;;;;;;5002679;28;20548;-66
2023/12/10 02:03:45;;;;;;;33.67;17.85;;;;;;;;;;4996677;28;20718;-67
2023/12/10 02:06:12;;;;;;;37.05;22.00;;;;;;;;;;4999752;28;20141;-67
2023/12/10 02:08:39;;;;;;;47.28;27.85;;;;;;;;;;5006495;28;20121;-68
2023/12/10 02:11:06;;;;;;;46.08;23.98;;;;;;;;;;5006402;28;20115;-67
2023/12/10 02:13:32;;;;;;;22.83;12.10;;;;;;;;;;5010859;28;20631;-68
2023/12/10 02:15:59;;;;;;;28.02;15.73;;;;;;;;;;5005543;28;20507;-67
2023/12/10 02:18:25;;;;;;;37.80;21.38;;;;;;;;;;5006132;28;20054;-69
2023/12/10 02:20:52;;;;;;;73.78;47.38;;;;;;;;;;5006453;28;20288;-66
2023/12/10 02:23:21;;;;;;;42.38;22.45;;;;;;;;;;5007087;28;20626;-66
2023/12/10 02:25:48;;;;;;;27.88;15.65;;;;;;;;;;4997946;28;20494;-66
2023/12/10 02:28:21;;;;;;;29.02;16.77;;;;;;;;;;5007061;28;20062;-68
2023/12/10 02:30:49;;;;;;;28.83;15.88;;;;;;;;;;5006669;28;20046;-67
2023/12/10 02:33:16;;;;;;;31.92;17.92;;;;;;;;;;5002794;28;20039;-68
2023/12/10 02:35:42;;;;;;;34.90;20.38;;;;;;;;;;5005341;28;20046;-66
2023/12/10 02:38:09;;;;;;;28.88;15.20;;;;;;;;;;5003090;28;20053;-69
2023/12/10 02:40:35;;;;;;;28.63;16.15;;;;;;;;;;5006261;28;20119;-67
2023/12/10 02:43:02;;;;;;;28.67;14.57;;;;;;;;;;4999586;28;20058;-67
2023/12/10 02:45:29;;;;;;;22.83;12.63;;;;;;;;;;5003832;28;20046;-67
2023/12/10 02:47:57;;;;;;;24.92;13.05;;;;;;;;;;5002576;28;20041;-68
2023/12/10 02:50:24;;;;;;;39.15;20.17;;;;;;;;;;5010466;28;20092;-66
2023/12/10 02:52:50;;;;;;;35.10;20.17;;;;;;;;;;4998805;28;20034;-67
2023/12/10 02:55:17;;;;;;;25.48;14.40;;;;;;;;;;5008362;28;20069;-67
2023/12/10 02:57:43;;;;;;;33.15;16.90;;;;;;;;;;5002739;28;20054;-66
2023/12/10 03:00:10;;;;;;;22.73;12.20;;;;;;;;;;5009566;28;20084;-67
2023/12/10 03:02:37;;;;;;;36.53;16.55;;;;;;;;;;4999236;28;20050;-67
2023/12/10 03:05:04;;;;;;;25.90;13.85;;;;;;;;;;5008096;28;20096;-67
2023/12/10 03:07:31;;;;;;;25.75;11.70;;;;;;;;;;5010133;28;20502;-66
2023/12/10 03:09:57;;;;;;;20.08;10.35;;;;;;;;;;5006797;28;20108;-68
2023/12/10 03:12:24;;;;;;;26.45;13.27;;;;;;;;;;5009061;28;20053;-68
2023/12/10 03:14:51;;;;;;;20.55;12.23;;;;;;;;;;5002061;28;20048;-67
2023/12/10 03:17:17;;;;;;;25.67;13.48;;;;;;;;;;5009341;28;20053;-67
2023/12/10 03:19:44;;;;;;;21.65;12.52;;;;;;;;;;5006753;28;20049;-67
2023/12/10 03:22:10;;;;;;;23.90;13.45;;;;;;;;;;5009991;28;20050;-68
2023/12/10 03:24:37;;;;;;;19.17;11.00;;;;;;;;;;5005738;28;20108;-68
2023/12/10 03:27:03;;;;;;;23.92;13.50;;;;;;;;;;5010240;28;20491;-68
2023/12/10 03:29:30;;;;;;;28.23;14.52;;;;;;;;;;5005186;28;20112;-67
2023/12/10 03:31:56;;;;;;;28.50;14.63;;;;;;;;;;5009832;28;20050;-68
2023/12/10 03:34:24;;;;;;;31.27;15.48;;;;;;;;;;5000075;28;20628;-68
2023/12/10 03:36:51;;;;;;;47.65;21.92;;;;;;;;;;5002708;28;20129;-67
2023/12/10 03:39:18;;;;;;;27.83;14.43;;;;;;;;;;5005605;28;20470;-68
2023/12/10 03:41:48;;;;;;;27.90;15.25;;;;;;;;;;5008763;28;20050;-68
2023/12/10 03:44:15;;;;;;;28.13;13.88;;;;;;;;;;5009655;28;20057;-69
2023/12/10 03:46:41;;;;;;;23.27;12.23;;;;;;;;;;5002568;28;20066;-67
2023/12/10 03:49:07;;;;;;;29.77;13.68;;;;;;;;;;5008016;28;20049;-67
2023/12/10 03:51:34;;;;;;;26.15;13.65;;;;;;;;;;4999872;28;20057;-68
2023/12/10 03:54:01;;;;;;;29.48;13.85;;;;;;;;;;5004019;28;20050;-67
2023/12/10 03:56:27;;;;;;;27.30;14.32;;;;;;;;;;5001288;28;20077;-67
2023/12/10 03:58:54;;;;;;;26.95;14.13;;;;;;;;;;5008803;28;20046;-67
2023/12/10 04:01:20;;;;;;;64.18;22.88;;;;;;;;;;5007548;28;20054;-67
2023/12/10 04:03:47;;;;;;;21.38;12.55;;;;;;;;;;5009134;28;20076;-68
2023/12/10 04:06:14;;;;;;;21.83;12.00;;;;;;;;;;5001419;28;20556;-67
2023/12/10 04:08:40;;;;;;;20.50;10.70;;;;;;;;;;5007429;28;20499;-68
2023/12/10 04:11:07;;;;;;;21.80;11.15;;;;;;;;;;5007786;28;20514;-67
2023/12/10 04:13:33;;;;;;;27.23;13.73;;;;;;;;;;5009241;28;20443;-68
2023/12/10 04:16:02;;;;;;;22.42;12.27;;;;;;;;;;5009738;28;20535;-68
2023/12/10 04:18:29;;;;;;;21.90;12.32;;;;;;;;;;5003482;28;20458;-67
2023/12/10 04:20:56;;;;;;;22.88;12.23;;;;;;;;;;5007684;28;20150;-68
2023/12/10 04:23:22;;;;;;;22.17;12.13;;;;;;;;;;4999446;28;20061;-68
2023/12/10 04:25:49;;;;;;;28.80;12.30;;;;;;;;;;5009011;28;20051;-68
2023/12/10 04:28:16;;;;;;;21.98;12.20;;;;;;;;;;5001686;28;20053;-69
2023/12/10 04:30:42;;;;;;;25.80;14.43;;;;;;;;;;5008380;28;20388;-66
2023/12/10 04:33:09;;;;;;;42.03;18.17;;;;;;;;;;5007453;28;20053;-67
2023/12/10 04:35:36;;;;;;;22.85;13.15;;;;;;;;;;5008850;28;20575;-67
2023/12/10 04:38:02;;;;;;;23.20;12.05;;;;;;;;;;5007809;28;20096;-68
2023/12/10 04:40:29;;;;;;;24.15;13.07;;;;;;;;;;5005772;28;21018;-67
2023/12/10 04:42:55;;;;;;;34.88;17.13;;;;;;;;;;5008198;28;20081;-67
2023/12/10 04:45:22;;;;;;;28.00;14.73;;;;;;;;;;5005946;28;20046;-67
2023/12/10 04:47:48;;;;;;;48.25;18.90;;;;;;;;;;5008135;28;20056;-68
2023/12/10 04:50:15;;;;;;;61.70;23.98;;;;;;;;;;5003842;28;20057;-66
2023/12/10 04:52:41;;;;;;;35.05;15.88;;;;;;;;;;5008322;28;20085;-67
2023/12/10 04:55:08;;;;;;;35.90;15.27;;;;;;;;;;5002237;28;20054;-68
2023/12/10 04:57:34;;;;;;;25.05;12.88;;;;;;;;;;5008474;28;20112;-67
2023/12/10 05:00:03;;;;;;;26.65;13.88;;;;;;;;;;5006833;28;20046;-67
2023/12/10 05:02:30;;;;;;;28.25;14.38;;;;;;;;;;5009827;28;20144;-68
2023/12/10 05:04:56;;;;;;;24.52;13.30;;;;;;;;;;5002974;28;20050;-71
2023/12/10 05:07:23;;;;;;;23.73;12.05;;;;;;;;;;5008321;28;20061;-67
2023/12/10 05:09:49;;;;;;;24.90;13.15;;;;;;;;;;5002313;28;20120;-68
2023/12/10 05:12:16;;;;;;;22.15;12.20;;;;;;;;;;5006210;28;20054;-68
2023/12/10 05:14:44;;;;;;;26.10;13.48;;;;;;;;;;5007611;28;20056;-67
2023/12/10 05:17:11;;;;;;;25.25;14.10;;;;;;;;;;5001696;28;20046;-72
2023/12/10 05:19:37;;;;;;;28.48;14.38;;;;;;;;;;5003408;28;20046;-68
2023/12/10 05:22:04;;;;;;;27.88;13.88;;;;;;;;;;5004219;28;20692;-67
2023/12/10 05:24:30;;;;;;;24.45;13.23;;;;;;;;;;5008548;28;20050;-68
2023/12/10 05:26:57;;;;;;;27.50;13.82;;;;;;;;;;4998287;28;20503;-69
2023/12/10 05:29:24;;;;;;;28.40;13.55;;;;;;;;;;5007131;28;20050;-67
2023/12/10 05:31:50;;;;;;;29.27;13.88;;;;;;;;;;5004144;28;20555;-67
2023/12/10 05:34:17;;;;;;;26.63;13.77;;;;;;;;;;5006934;28;20053;-68
2023/12/10 05:36:43;;;;;;;24.13;13.45;;;;;;;;;;5006634;28;20054;-70
2023/12/10 05:39:10;;;;;;;27.67;14.93;;;;;;;;;;5007153;28;20057;-68
2023/12/10 05:41:37;;;;;;;27.50;14.68;;;;;;;;;;5002312;28;20073;-68
2023/12/10 05:44:03;;;;;;;24.70;12.40;;;;;;;;;;5006434;28;20099;-69
2023/12/10 05:46:30;;;;;;;26.48;13.13;;;;;;;;;;5000484;28;20645;-67
2023/12/10 05:48:57;;;;;;;25.60;14.15;;;;;;;;;;5004177;28;20057;-68
2023/12/10 05:51:23;;;;;;;26.55;13.13;;;;;;;;;;5003146;28;20145;-71
2023/12/10 05:53:50;;;;;;;24.52;13.48;;;;;;;;;;5004985;28;20134;-68
2023/12/10 05:56:17;;;;;;;26.73;13.55;;;;;;;;;;5007025;28;20046;-67
2023/12/10 05:58:43;;;;;;;28.83;14.48;;;;;;;;;;5001887;28;20081;-67
2023/12/10 06:01:10;;;;;;;38.55;16.00;;;;;;;;;;5006751;28;20568;-71
2023/12/10 06:03:36;;;;;;;25.52;13.55;;;;;;;;;;5006210;28;20088;-68
2023/12/10 06:06:03;;;;;;;30.75;15.32;;;;;;;;;;5006745;28;20489;-68
2023/12/10 06:08:29;;;;;;;31.58;14.77;;;;;;;;;;4997857;28;20621;-68
2023/12/10 06:10:56;;;;;;;33.47;14.68;;;;;;;;;;5004097;28;20042;-70
2023/12/10 06:13:22;;;;;;;34.72;15.10;;;;;;;;;;5004662;28;20123;-68
2023/12/10 06:15:49;;;;;;;35.05;14.95;;;;;;;;;;5006431;28;20050;-68
2023/12/10 06:18:15;;;;;;;39.60;16.55;;;;;;;;;;4995808;28;20117;-68
2023/12/10 06:20:42;;;;;;;33.83;15.27;;;;;;;;;;5004563;28;20066;-69
2023/12/10 06:23:09;;;;;;;32.28;14.65;;;;;;;;;;5008773;28;20054;-67
2023/12/10 06:25:35;;;;;;;33.58;16.20;;;;;;;;;;5005836;28;20050;-68
2023/12/10 06:28:02;;;;;;;36.15;13.57;;;;;;;;;;5008522;28;20100;-68
2023/12/10 06:30:29;;;;;;;36.53;15.70;;;;;;;;;;5008245;28;20038;-69
2023/12/10 06:32:55;;;;;;;36.55;15.40;;;;;;;;;;5011002;28;20050;-69
2023/12/10 06:35:22;;;;;;;36.10;14.85;;;;;;;;;;5004920;28;20053;-68
2023/12/10 06:37:49;;;;;;;32.78;14.88;;;;;;;;;;4997003;28;20104;-70
2023/12/10 06:40:16;;;;;;;35.30;15.73;;;;;;;;;;5004148;28;20084;-68
2023/12/10 06:42:42;;;;;;;33.30;14.95;;;;;;;;;;5010769;28;20449;-68
2023/12/10 06:45:10;;;;;;;34.22;13.65;;;;;;;;;;5009913;28;20128;-68
2023/12/10 06:47:37;;;;;;;38.53;15.77;;;;;;;;;;5010796;28;20049;-67
2023/12/10 06:50:03;;;;;;;35.72;14.27;;;;;;;;;;5005501;28;20112;-69
2023/12/10 06:52:30;;;;;;;33.60;14.35;;;;;;;;;;5007777;28;20054;-67
2023/12/10 06:54:56;;;;;;;31.95;14.00;;;;;;;;;;5003389;28;20120;-72
2023/12/10 06:57:26;;;;;;;31.80;14.50;;;;;;;;;;5005295;28;20046;-67
2023/12/10 06:59:53;;;;;;;28.27;13.75;;;;;;;;;;5005480;28;20422;-67
2023/12/10 07:02:19;;;;;;;28.65;14.13;;;;;;;;;;5006838;28;20046;-69
2023/12/10 07:04:46;;;;;;;27.63;12.68;;;;;;;;;;5010379;28;20050;-68
2023/12/10 07:07:12;;;;;;;35.15;10.45;;;;;;;;;;5000503;28;20046;-67
2023/12/10 07:09:39;;;;;;;31.05;9.75;;;;;;;;;;5009046;28;20050;-68
2023/12/10 07:12:05;;;;;;;36.10;12.90;;;;;;;;;;5004708;28;20050;-68
2023/12/10 07:14:32;;;;;;;33.85;12.68;;;;;;;;;;5009863;28;20146;-68
2023/12/10 07:16:58;;;;;;;29.38;9.88;;;;;;;;;;4997193;28;20054;-68
2023/12/10 07:19:25;;;;;;;27.52;10.73;;;;;;;;;;5009482;28;20135;-67
2023/12/10 07:21:52;;;;;;;34.53;10.15;;;;;;;;;;5008178;28;20462;-66
2023/12/10 07:24:20;;;;;;;22.95;7.82;;;;;;;;;;5009256;28;20538;-69
2023/12/10 07:26:47;;;;;;;35.28;10.10;;;;;;;;;;5005505;28;20046;-70
2023/12/10 07:29:14;;;;;;;39.55;9.02;;;;;;;;;;5006021;28;20128;-69
2023/12/10 07:31:40;;;;;;;39.00;9.85;;;;;;;;;;5006015;28;20483;-68
2023/12/10 07:34:08;;;;;;;34.05;8.55;;;;;;;;;;5008370;28;20054;-68
2023/12/10 07:36:34;;;;;;;23.77;8.55;;;;;;;;;;5009685;28;20112;-68
2023/12/10 07:39:04;;;;;;;21.63;7.00;;;;;;;;;;5004846;28;20057;-68
2023/12/10 07:41:31;;;;;;;17.75;6.38;;;;;;;;;;5009101;28;20054;-68
2023/12/10 07:43:57;;;;;;;20.85;6.97;;;;;;;;;;5007045;28;20446;-68
2023/12/10 07:46:23;;;;;;;23.38;5.05;;;;;;;;;;5008639;28;20045;-69
2023/12/10 07:48:50;;;;;;;18.55;6.20;;;;;;;;;;4995254;28;20046;-70
2023/12/10 07:51:16;;;;;;;20.05;4.25;;;;;;;;;;5009443;28;20663;-70
2023/12/10 07:53:43;;;;;;;23.25;5.72;;;;;;;;;;5005122;28;20557;-68
2023/12/10 07:56:09;;;;;;;19.98;4.82;;;;;;;;;;5008458;28;20046;-69
2023/12/10 07:58:36;;;;;;;17.88;4.85;;;;;;;;;;4999532;28;20518;-68
2023/12/10 08:01:03;;;;;;;33.25;4.72;;;;;;;;;;5007370;28;20054;-67
2023/12/10 08:03:29;;;;;;;26.02;4.57;;;;;;;;;;5008254;28;20143;-69
2023/12/10 08:05:56;;;;;;;21.38;5.55;;;;;;;;;;5001937;28;20038;-67
2023/12/10 08:08:23;;;;;;;24.30;4.10;;;;;;;;;;5006813;28;20053;-68
2023/12/10 08:10:50;;;;;;;19.17;4.50;;;;;;;;;;5003385;28;20113;-68
2023/12/10 08:13:19;;;;;;;22.73;4.97;;;;;;;;;;5009535;28;20050;-68
2023/12/10 08:15:46;;;;;;;21.08;4.60;;;;;;;;;;5001356;28;20052;-70
2023/12/10 08:18:12;;;;;;;25.27;4.75;;;;;;;;;;5009052;28;20053;-67
2023/12/10 08:20:39;;;;;;;24.70;5.22;;;;;;;;;;5000899;28;20045;-68
2023/12/10 08:23:05;;;;;;;20.13;4.78;;;;;;;;;;5005534;28;20083;-69
2023/12/10 08:25:32;;;;;;;12.80;3.33;;;;;;;;;;5007754;28;20096;-68
2023/12/10 08:27:58;;;;;;;18.88;4.60;;;;;;;;;;5008586;28;20092;-68
2023/12/10 08:30:25;;;;;;;28.35;4.20;;;;;;;;;;5005443;28;20711;-67
2023/12/10 08:32:51;;;;;;;11.02;3.53;;;;;;;;;;5008341;28;20566;-69
2023/12/10 08:35:18;;;;;;;19.67;4.22;;;;;;;;;;5005265;28;20513;-68
2023/12/10 08:37:44;;;;;;;16.40;4.35;;;;;;;;;;5008653;28;20096;-67
2023/12/10 08:40:11;;;;;;;21.60;5.47;;;;;;;;;;5008240;28;20046;-68
2023/12/10 08:42:37;;;;;;;17.63;3.22;;;;;;;;;;5006785;28;20545;-68
2023/12/10 08:45:04;;;;;;;27.70;5.38;;;;;;;;;;5007661;28;20104;-68
2023/12/10 08:47:31;;;;;;;23.05;4.65;;;;;;;;;;5006638;28;20060;-67
2023/12/10 08:49:57;;;;;;;22.70;5.15;;;;;;;;;;5007516;28;20489;-69
2023/12/10 08:52:24;;;;;;;21.40;3.58;;;;;;;;;;5005740;28;20050;-70
2023/12/10 08:54:50;;;;;;;23.17;3.78;;;;;;;;;;5006996;28;20037;-68
2023/12/10 08:57:17;;;;;;;25.67;6.22;;;;;;;;;;5007287;28;20050;-70
2023/12/10 08:59:44;;;;;;;25.75;3.60;;;;;;;;;;5004268;28;20046;-70
2023/12/10 09:02:10;;;;;;;27.15;3.40;;;;;;;;;;5006740;28;20115;-69
2023/12/10 09:04:37;;;;;;;27.70;4.95;;;;;;;;;;5003437;28;20057;-69
2023/12/10 09:07:03;;;;;;;18.60;4.22;;;;;;;;;;5007179;28;20057;-69
2023/12/10 09:09:32;;;;;;;22.67;3.47;;;;;;;;;;5001563;28;20054;-68
2023/12/10 09:11:59;;;;;;;23.58;6.55;;;;;;;;;;5007800;28;20062;-69
2023/12/10 09:14:25;;;;;;;21.95;3.85;;;;;;;;;;5005624;28;20053;-68
2023/12/10 09:16:52;;;;;;;18.50;4.38;;;;;;;;;;5007648;28;20054;-68
2023/12/10 09:19:21;;;;;;;26.25;5.07;;;;;;;;;;5002164;28;20046;-71
2023/12/10 09:21:48;;;;;;;22.85;4.53;;;;;;;;;;5002952;28;20049;-68
2023/12/10 09:24:14;;;;;;;20.02;4.40;;;;;;;;;;5000322;28;20126;-67
2023/12/10 09:26:41;;;;;;;19.67;4.95;;;;;;;;;;5008048;28;20059;-70
2023/12/10 09:29:07;;;;;;;14.68;4.50;;;;;;;;;;4994358;28;20486;-68
2023/12/10 09:31:34;;;;;;;24.20;5.85;;;;;;;;;;5004579;28;20380;-68
2023/12/10 09:34:00;;;;;;;29.13;4.72;;;;;;;;;;5001066;28;20049;-70
2023/12/10 09:36:27;;;;;;;30.88;5.28;;;;;;;;;;5005966;28;20080;-69
2023/12/10 09:38:53;;;;;;;31.55;4.93;;;;;;;;;;5007300;28;20092;-68
2023/12/10 09:41:20;;;;;;;29.60;3.75;;;;;;;;;;4997982;28;20058;-68
2023/12/10 09:43:46;;;;;;;35.15;4.70;;;;;;;;;;5005137;28;20057;-67
2023/12/10 09:46:13;;;;;;;21.95;4.25;;;;;;;;;;5006564;28;20045;-65
2023/12/10 09:48:41;;;;;;;27.50;5.20;;;;;;;;;;5004352;28;20081;-66
2023/12/10 09:51:08;;;;;;;28.33;5.97;;;;;;;;;;5002504;28;20053;-67
2023/12/10 09:53:34;;;;;;;32.75;7.75;;;;;;;;;;5006770;28;20053;-68
2023/12/10 09:56:01;;;;;;;45.33;5.13;;;;;;;;;;5002745;28;20128;-66
2023/12/10 09:58:28;;;;;;;24.67;5.88;;;;;;;;;;5006900;28;20498;-67
2023/12/10 10:00:54;;;;;;;25.48;4.57;;;;;;;;;;5002382;28;20042;-68
2023/12/10 10:03:21;;;;;;;21.67;5.05;;;;;;;;;;5006703;28;20042;-67
2023/12/10 10:05:47;;;;;;;22.55;4.75;;;;;;;;;;5006554;28;20038;-69
2023/12/10 10:08:14;;;;;;;29.58;5.65;;;;;;;;;;4992731;28;20048;-69
2023/12/10 10:10:40;;;;;;;24.98;4.45;;;;;;;;;;5005201;28;20058;-67
2023/12/10 10:13:07;;;;;;;30.48;4.57;;;;;;;;;;5002517;28;20046;-68
2023/12/10 10:15:34;;;;;;;22.35;4.60;;;;;;;;;;5006298;28;20046;-67
2023/12/10 10:18:00;;;;;;;28.65;4.63;;;;;;;;;;5006087;28;20056;-69
2023/12/10 10:20:28;;;;;;;18.23;4.68;;;;;;;;;;5006114;28;20045;-67
2023/12/10 10:22:54;;;;;;;18.67;3.65;;;;;;;;;;4999047;28;20141;-67
2023/12/10 10:25:21;;;;;;;23.20;4.95;;;;;;;;;;5005105;28;20137;-67
2023/12/10 10:27:49;;;;;;;25.45;5.18;;;;;;;;;;5003067;28;20117;-68
2023/12/10 10:30:16;;;;;;;25.55;5.00;;;;;;;;;;5006261;28;21735;-67
2023/12/10 10:32:43;;;;;;;37.60;5.38;;;;;;;;;;4991332;28;20049;-72
2023/12/10 10:35:11;;;;;;;35.17;4.63;;;;;;;;;;5003315;28;20050;-69
2023/12/10 10:37:38;;;;;;;18.58;4.18;;;;;;;;;;4995386;28;20054;-68
2023/12/10 10:40:05;;;;;;;18.33;4.00;;;;;;;;;;5001728;28;20765;-67
2023/12/10 10:42:32;;;;;;;20.83;4.30;;;;;;;;;;5006960;28;20053;-67
2023/12/10 10:45:02;;;;;;;32.45;5.07;;;;;;;;;;4999223;28;20050;-68
2023/12/10 10:47:30;;;;;;;18.98;3.67;;;;;;;;;;5006771;28;20050;-66
2023/12/10 10:49:58;;;;;;;20.63;4.18;;;;;;;;;;5006392;28;20139;-69
2023/12/10 10:52:45;;;;;;;28.13;4.35;;;;;;;;;;5006648;28;20046;-70
2023/12/10 10:55:13;;;;;;;23.17;4.38;;;;;;;;;;5002847;28;20057;-69
2023/12/10 10:57:40;;;;;;;17.08;3.65;;;;;;;;;;5006695;28;20046;-67
2023/12/10 11:00:20;;;;;;;19.17;4.35;;;;;;;;;;5006483;28;20060;-68
2023/12/10 11:02:47;;;;;;;15.07;3.78;;;;;;;;;;5001294;28;20136;-68
2023/12/10 11:05:14;;;;;;;21.90;5.10;;;;;;;;;;5001309;28;20141;-68
2023/12/10 11:07:40;;;;;;;14.88;3.97;;;;;;;;;;4994955;28;20084;-68
2023/12/10 11:10:07;;;;;;;19.83;4.93;;;;;;;;;;5008336;28;20057;-68
2023/12/10 11:12:40;;;;;;;19.95;5.63;;;;;;;;;;5000278;28;20553;-71
2023/12/10 11:15:26;;;;;;;28.35;4.82;;;;;;;;;;5003746;28;20527;-69
2023/12/10 11:18:05;;;;;;;19.35;4.38;;;;;;;;;;5005992;28;20647;-68
2023/12/10 11:20:39;;;;;;;15.35;3.67;;;;;;;;;;5008380;28;20053;-70
2023/12/10 11:23:16;;;;;;;19.73;4.28;;;;;;;;;;5000614;28;20132;-69
2023/12/10 11:25:43;;;;;;;13.02;3.40;;;;;;;;;;5004893;28;20046;-68
2023/12/10 11:28:12;;;;;;;22.85;4.15;;;;;;;;;;5009197;28;20058;-68
2023/12/10 11:30:39;;;;;;;13.93;3.10;;;;;;;;;;5008102;28;20062;-67
2023/12/10 11:33:06;;;;;;;9.88;2.55;;;;;;;;;;5010639;28;20049;-70
2023/12/10 11:35:33;;;;;;;15.05;3.20;;;;;;;;;;5008501;28;20105;-68
2023/12/10 11:37:59;;;;;;;20.77;3.92;;;;;;;;;;5009244;28;20061;-72
2023/12/10 11:40:26;;;;;;;29.85;4.22;;;;;;;;;;5001512;28;20430;-73
2023/12/10 11:42:52;;;;;;;25.13;4.25;;;;;;;;;;5009694;28;20125;-70
2023/12/10 11:45:19;;;;;;;16.08;2.92;;;;;;;;;;5003824;28;20053;-68
2023/12/10 11:47:46;;;;;;;15.93;3.65;;;;;;;;;;5009544;28;20048;-68
2023/12/10 11:50:14;;;;;;;18.50;2.70;;;;;;;;;;5008308;28;20046;-70
2023/12/10 11:52:40;;;;;;;11.70;3.63;;;;;;;;;;5010039;28;20042;-70
2023/12/10 11:55:07;;;;;;;30.42;3.50;;;;;;;;;;5003245;28;20053;-70
2023/12/10 11:57:39;;;;;;;19.80;4.45;;;;;;;;;;5007235;28;20057;-69
2023/12/10 12:00:06;;;;;;;18.13;3.92;;;;;;;;;;5005905;28;20049;-69
2023/12/10 12:02:34;;;;;;;23.20;3.35;;;;;;;;;;5007881;28;20844;-69
2023/12/10 12:05:01;;;;;;;18.38;2.83;;;;;;;;;;5005866;28;20130;-68
2023/12/10 12:07:28;;;;;;;21.70;3.63;;;;;;;;;;5002834;28;20088;-69
2023/12/10 12:09:55;;;;;;;16.10;3.05;;;;;;;;;;5004161;28;20038;-68
2023/12/10 12:12:22;;;;;;;18.08;4.35;;;;;;;;;;5002289;28;20501;-70
2023/12/10 12:14:51;;;;;;;19.80;3.40;;;;;;;;;;5009041;28;20077;-69
2023/12/10 12:17:21;;;;;;;11.13;3.65;;;;;;;;;;5006768;28;20076;-69
2023/12/10 12:19:48;;;;;;;22.52;3.85;;;;;;;;;;5007879;28;20112;-71
2023/12/10 12:22:14;;;;;;;13.57;2.95;;;;;;;;;;5002736;28;20050;-72
2023/12/10 12:24:43;;;;;;;16.58;4.60;;;;;;;;;;5009171;28;20054;-72
2023/12/10 12:27:10;;;;;;;14.55;2.67;;;;;;;;;;5007487;28;20046;-73
2023/12/10 12:29:40;;;;;;;11.80;2.63;;;;;;;;;;5002829;28;20057;-68
2023/12/10 12:32:06;;;;;;;16.00;3.50;;;;;;;;;;5007111;28;20049;-71
2023/12/10 12:34:53;;;;;;;22.15;3.67;;;;;;;;;;5003688;28;20041;-68
2023/12/10 12:37:19;;;;;;;14.95;3.30;;;;;;;;;;5008264;28;20046;-70
2023/12/10 12:39:46;;;;;;;15.75;3.30;;;;;;;;;;4997942;28;20101;-69
2023/12/10 12:42:12;;;;;;;18.60;4.45;;;;;;;;;;5006934;28;20049;-70
2023/12/10 12:44:39;;;;;;;12.55;2.67;;;;;;;;;;5005289;28;20050;-68
2023/12/10 12:47:06;;;;;;;9.55;2.30;;;;;;;;;;5008083;28;20042;-72
2023/12/10 12:49:32;;;;;;;11.88;2.65;;;;;;;;;;5001727;28;20127;-69
2023/12/10 12:51:59;;;;;;;8.70;1.55;;;;;;;;;;5008190;28;20685;-71
2023/12/10 12:54:26;;;;;;;12.00;2.55;;;;;;;;;;5000667;28;20077;-68
2023/12/10 12:56:53;;;;;;;13.20;2.63;;;;;;;;;;5007533;28;20140;-68
2023/12/10 12:59:19;;;;;;;10.75;2.58;;;;;;;;;;5006971;28;20100;-72
2023/12/10 13:01:45;;;;;;;11.20;2.42;;;;;;;;;;5004566;28;20074;-69
2023/12/10 13:04:12;;;;;;;14.10;2.42;;;;;;;;;;5003231;28;20299;-71
2023/12/10 13:06:39;;;;;;;10.55;2.22;;;;;;;;;;5002635;28;20038;-71
2023/12/10 13:09:05;;;;;;;10.30;2.80;;;;;;;;;;4997745;28;20108;-68
2023/12/10 13:11:32;;;;;;;15.13;2.70;;;;;;;;;;4997835;28;20054;-73
2023/12/10 13:13:58;;;;;;;14.15;2.83;;;;;;;;;;5007273;28;20494;-68
2023/12/10 13:16:25;;;;;;;9.25;1.85;;;;;;;;;;5006211;28;20520;-71
2023/12/10 13:18:51;;;;;;;6.43;2.17;;;;;;;;;;5007654;28;20376;-69
2023/12/10 13:21:18;;;;;;;3.65;1.83;;;;;;;;;;5001640;28;20050;-70
2023/12/10 13:23:48;;;;;;;9.60;2.88;;;;;;;;;;5006598;28;20108;-69
2023/12/10 13:26:15;;;;;;;10.30;2.65;;;;;;;;;;5001235;28;20057;-70
2023/12/10 13:28:41;;;;;;;5.00;2.22;;;;;;;;;;5005542;28;20404;-70
2023/12/10 13:31:08;;;;;;;9.98;2.47;;;;;;;;;;5006400;28;20103;-70
2023/12/10 13:33:34;;;;;;;13.40;3.00;;;;;;;;;;5004197;28;20050;-71
2023/12/10 13:36:01;;;;;;;10.93;4.25;;;;;;;;;;5006736;28;20045;-68
2023/12/10 13:38:28;;;;;;;15.05;3.85;;;;;;;;;;4994746;28;20133;-72
2023/12/10 13:40:54;;;;;;;9.98;2.35;;;;;;;;;;5007312;28;20430;-72
2023/12/10 13:43:21;;;;;;;11.65;2.40;;;;;;;;;;4998337;28;20054;-72
2023/12/10 13:45:48;;;;;;;17.08;2.63;;;;;;;;;;5007266;28;20053;-74
2023/12/10 13:48:14;;;;;;;6.28;1.83;;;;;;;;;;5005139;28;20042;-71
2023/12/10 13:50:41;;;;;;;6.13;1.75;;;;;;;;;;5006840;28;20053;-72
2023/12/10 13:53:08;;;;;;;11.50;1.98;;;;;;;;;;4997750;28;20050;-72
2023/12/10 13:55:35;;;;;;;15.98;2.40;;;;;;;;;;5005799;28;20089;-74
2023/12/10 13:58:01;;;;;;;9.65;2.15;;;;;;;;;;5003616;28;20071;-74
2023/12/10 14:00:28;;;;;;;6.05;2.17;;;;;;;;;;5004667;28;20049;-73
2023/12/10 14:02:54;;;;;;;11.60;2.42;;;;;;;;;;4996801;28;20523;-73
2023/12/10 14:05:21;;;;;;;11.55;2.60;;;;;;;;;;5006241;28;20046;-73
2023/12/10 14:07:48;;;;;;;9.18;2.47;;;;;;;;;;5007775;28;20049;-72
2023/12/10 14:10:15;;;;;;;17.25;3.17;;;;;;;;;;5002207;28;20046;-73
2023/12/10 14:12:42;;;;;;;10.20;2.47;;;;;;;;;;5007278;28;20050;-74
2023/12/10 14:15:09;;;;;;;10.30;2.28;;;;;;;;;;5000482;28;20053;-72
2023/12/10 14:17:38;;;;;;;11.95;2.88;;;;;;;;;;5007219;28;20064;-73
2023/12/10 14:20:08;;;;;;;7.72;2.80;;;;;;;;;;4995865;28;20047;-74
2023/12/10 14:22:34;;;;;;;5.20;1.73;;;;;;;;;;5007049;28;20046;-75